Nedre Soppero, Sweden

12:59 AM CET on December 11, 2016 (GMT +0100)
Kiruna | | Change Station

Elev 1483 ft 67.82 °N, 20.34 °E | Updated 9 minutes ago

Clear
Clear
0 °F
Feels Like -12 °F
N
6
Wind Variable Wind from West

Today
High -- | Low -- °F
--% Chance of Precip.
Yesterday
High -- | Low -- °F
Precip. -- in
Pressure 29.71 in
Visibility 6.2 miles
Clouds
Windchill -12 °F
Dew Point -2 °F
Humidity 92%
Rainfall 0.00 in
Snow Depth Not available.
10:53 AM 11:58 AM
Waxing Gibbous, 87% visible
METAR ESNQ 102350Z AUTO 28005KT 9999 NCD M18/M19 Q1006
Pressure 29.71 in
Visibility 6.2 miles
Clouds
Windchill -12 °F
Dew Point -2 °F
Humidity 92%
Rainfall 0.00 in
Snow Depth Not available.
10:53 AM 11:58 AM
Waxing Gibbous, 87% visible
METAR ESNQ 102350Z AUTO 28005KT 9999 NCD M18/M19 Q1006

10-Day Weather Forecast

×

Almanac

Astronomy

Dec. 11, 2016 Rise Set
Actual Time
Civil Twilight
Nautical Twilight
Astronomical Twilight
Moon
Length of Visible Light
Length of Day
Tomorrow will be .
, % of the Moon is Illuminated

Today's Extremes

Country Highs Country Lows

Community

WunderPhotos

Upload Photos

1,956,677 photos uploaded!

WunderBlog® & News

Nearby

Air Quality

  Air Quality AQ Index Pollutant
Not available.

Snow Depth

Station Depth Elevation

Earthquake Activity

City Distance Mag. Time & Date
Minimum magnitude displayed is 2.5.

Coastal Water Temperatures

Place Temperature

Stations

Nearby Weather Stations

Station Location Temp. Windchill Dew Point Humidity Wind Precip. Elev Updated Type